Time;durP1;ratioP1;P1;durP2;ratioP2;P2;SDS_P1;SDS_P2;PMS_P1;PMS_P2;Temp;Humidity;BMP_temperature;BMP_pressure;BME280_temperature;BME280_humidity;BME280_pressure;Samples;Min_cycle;Max_cycle;Signal;HPM_P1;HPM_P2
2021/08/30 00:02:24;;;;;;;6.23;4.87;;;15.80;99.90;;;;;;5003361;28;20205;-89
2021/08/30 00:04:50;;;;;;;5.87;5.37;;;15.80;99.80;;;;;;5001766;28;20263;-89
2021/08/30 00:07:15;;;;;;;5.53;5.10;;;15.80;99.90;;;;;;4988555;28;20203;-88
2021/08/30 00:09:41;;;;;;;5.13;4.73;;;15.80;99.90;;;;;;4998309;28;20195;-88
2021/08/30 00:12:07;;;;;;;8.40;5.20;;;15.90;99.70;;;;;;4979735;28;20202;-88
2021/08/30 00:14:34;;;;;;;4.93;4.53;;;15.90;99.60;;;;;;4985417;28;20245;-88
2021/08/30 00:16:59;;;;;;;5.63;5.23;;;15.80;99.90;;;;;;4998798;28;20182;-88
2021/08/30 00:19:26;;;;;;;5.37;4.80;;;15.80;99.90;;;;;;4999049;28;20249;-88
2021/08/30 00:21:51;;;;;;;5.40;4.90;;;16.00;99.50;;;;;;4987990;28;20215;-89
2021/08/30 00:24:23;;;;;;;6.53;5.13;;;16.10;99.30;;;;;;5005386;28;20236;-88
2021/08/30 00:26:49;;;;;;;7.20;5.53;;;16.10;98.80;;;;;;5002383;28;20230;-88
2021/08/30 00:29:14;;;;;;;5.93;5.20;;;15.90;99.40;;;;;;5003506;28;20223;-88
2021/08/30 00:31:41;;;;;;;7.57;5.43;;;15.80;99.90;;;;;;5002459;28;20194;-88
2021/08/30 00:34:07;;;;;;;9.43;5.33;;;15.90;99.40;;;;;;4999918;28;20628;-88
2021/08/30 00:36:32;;;;;;;6.37;5.87;;;15.80;99.90;;;;;;5001975;28;20202;-88
2021/08/30 00:38:58;;;;;;;7.10;5.80;;;15.60;99.90;;;;;;4986737;28;20230;-88
2021/08/30 00:41:25;;;;;;;6.60;5.73;;;15.60;99.90;;;;;;4993127;28;20230;-88
2021/08/30 00:43:52;;;;;;;5.80;5.30;;;15.40;99.90;;;;;;5008551;28;20218;-87
2021/08/30 00:46:19;;;;;;;7.10;5.20;;;15.40;99.90;;;;;;5003822;28;20702;-88
2021/08/30 00:48:48;;;;;;;6.10;5.50;;;15.40;99.90;;;;;;5000989;28;20186;-88
2021/08/30 00:51:15;;;;;;;6.27;5.00;;;15.50;99.90;;;;;;4994569;28;20454;-88
2021/08/30 00:53:47;;;;;;;5.73;4.93;;;15.60;99.90;;;;;;4988804;28;20244;-88
2021/08/30 00:56:13;;;;;;;6.03;5.33;;;15.50;99.90;;;;;;5002068;28;20176;-88
2021/08/30 00:58:41;;;;;;;5.63;5.00;;;15.50;99.90;;;;;;4998817;28;20198;-88
2021/08/30 01:01:08;;;;;;;4.90;4.50;;;15.60;99.90;;;;;;4998554;28;20222;-88
2021/08/30 01:03:35;;;;;;;5.57;4.37;;;15.60;99.90;;;;;;4986435;28;20291;-90
2021/08/30 01:06:27;;;;;;;5.47;4.43;;;15.70;99.90;;;;;;4999882;28;20192;-88
2021/08/30 01:09:09;;;;;;;4.37;4.07;;;15.80;99.90;;;;;;4982814;28;20217;-88
2021/08/30 01:11:39;;;;;;;5.67;4.37;;;15.90;99.30;;;;;;4992171;28;20256;-89
2021/08/30 01:14:10;;;;;;;4.73;4.27;;;15.90;99.10;;;;;;5003157;28;20305;-88
2021/08/30 01:16:37;;;;;;;4.27;3.97;;;15.90;98.80;;;;;;5003333;28;20289;-88
2021/08/30 01:19:07;;;;;;;5.03;4.20;;;15.80;99.90;;;;;;5008223;28;20195;-88
2021/08/30 01:21:37;;;;;;;4.70;4.27;;;15.80;99.30;;;;;;4990494;28;20286;-88
2021/08/30 01:24:07;;;;;;;4.73;4.33;;;15.80;99.20;;;;;;4988450;28;20218;-88
2021/08/30 01:26:47;;;;;;;4.10;3.80;;;15.80;99.10;;;;;;5013406;28;20182;-88
2021/08/30 01:29:16;;;;;;;5.13;4.17;;;16.00;99.20;;;;;;5009663;28;20195;-89
2021/08/30 01:32:01;;;;;;;4.60;4.20;;;16.00;98.50;;;;;;4995988;28;20197;-88
2021/08/30 01:34:29;;;;;;;4.83;4.37;;;16.00;98.10;;;;;;5002940;28;20226;-88
2021/08/30 01:36:56;;;;;;;4.73;4.00;;;16.10;98.20;;;;;;5001291;28;20289;-88
2021/08/30 01:39:29;;;;;;;6.90;4.80;;;16.10;97.90;;;;;;4999204;28;20201;-88
2021/08/30 01:42:00;;;;;;;6.30;4.80;;;15.90;98.90;;;;;;4987689;28;20197;-88
2021/08/30 01:44:27;;;;;;;4.90;4.50;;;15.70;99.90;;;;;;4985139;28;20366;-88
2021/08/30 01:46:55;;;;;;;5.60;4.90;;;15.70;99.90;;;;;;4996969;28;20677;-88
2021/08/30 01:49:24;;;;;;;6.70;5.00;;;15.60;99.90;;;;;;4996953;28;20262;-88
2021/08/30 01:51:51;;;;;;;5.97;4.97;;;15.80;99.90;;;;;;5002506;28;20256;-88
2021/08/30 01:54:19;;;;;;;6.10;4.90;;;15.80;99.60;;;;;;5001022;28;20615;-88
2021/08/30 01:56:49;;;;;;;5.53;4.73;;;15.60;99.90;;;;;;4993424;28;20213;-88
2021/08/30 02:02:00;;;;;;;4.57;4.27;;;15.60;99.90;;;;;;4988631;28;20205;-88
2021/08/30 02:04:26;;;;;;;4.83;4.40;;;15.80;99.90;;;;;;4991611;28;20221;-89
2021/08/30 02:06:51;;;;;;;6.17;4.83;;;15.80;99.30;;;;;;4996371;28;20277;-89
2021/08/30 02:09:17;;;;;;;4.57;4.17;;;15.90;99.20;;;;;;4980948;28;20218;-88
2021/08/30 02:11:43;;;;;;;4.50;4.20;;;15.90;99.10;;;;;;5010432;28;20202;-88
2021/08/30 02:14:09;;;;;;;5.33;4.50;;;15.90;99.40;;;;;;4993331;28;20221;-88
2021/08/30 02:16:36;;;;;;;5.50;5.00;;;15.90;99.60;;;;;;4983131;28;20281;-88
2021/08/30 02:19:24;;;;;;;5.13;4.63;;;15.90;98.80;;;;;;4994385;28;20577;-88
2021/08/30 02:21:59;;;;;;;5.17;4.77;;;15.90;99.30;;;;;;4996203;28;20188;-89
2021/08/30 02:24:39;;;;;;;5.70;5.20;;;15.90;98.90;;;;;;4997250;28;20217;-89
2021/08/30 02:27:11;;;;;;;5.40;5.00;;;15.80;99.70;;;;;;4996740;28;20194;-88
2021/08/30 02:29:45;;;;;;;5.37;4.77;;;15.50;99.90;;;;;;4996345;28;20207;-88
2021/08/30 02:32:13;;;;;;;5.47;4.97;;;15.50;99.90;;;;;;4991388;28;20563;-88
2021/08/30 02:34:43;;;;;;;6.73;5.27;;;15.50;99.90;;;;;;4996679;28;20308;-89
2021/08/30 02:37:10;;;;;;;5.77;5.27;;;15.40;99.90;;;;;;4979980;28;20180;-89
2021/08/30 02:39:37;;;;;;;5.43;5.03;;;15.40;99.90;;;;;;4996979;28;20197;-89
2021/08/30 02:42:05;;;;;;;5.67;5.10;;;15.50;99.90;;;;;;4995938;28;20205;-89
2021/08/30 02:44:33;;;;;;;5.73;5.13;;;15.40;99.90;;;;;;4992743;28;20214;-89
2021/08/30 02:47:00;;;;;;;5.87;4.87;;;15.50;99.90;;;;;;5010968;28;20202;-89
2021/08/30 02:49:26;;;;;;;4.90;4.60;;;15.50;99.90;;;;;;4995064;28;20204;-90
2021/08/30 02:51:53;;;;;;;5.17;4.63;;;15.60;99.90;;;;;;4995214;28;20205;-90
2021/08/30 02:54:21;;;;;;;5.93;5.00;;;15.70;99.90;;;;;;4998143;28;20210;-89
2021/08/30 02:56:47;;;;;;;5.90;5.40;;;15.80;99.90;;;;;;4990729;28;20191;-90
2021/08/30 02:59:13;;;;;;;5.97;5.07;;;15.70;99.90;;;;;;4983723;28;20198;-89
2021/08/30 03:01:41;;;;;;;5.63;5.00;;;15.70;99.90;;;;;;4979426;28;20237;-90
2021/08/30 03:04:07;;;;;;;5.47;4.97;;;15.70;99.90;;;;;;4996197;28;20221;-90
2021/08/30 03:06:33;;;;;;;5.83;5.33;;;15.60;99.90;;;;;;4993225;28;20602;-90
2021/08/30 03:08:59;;;;;;;6.97;5.17;;;15.70;99.90;;;;;;4998532;28;20194;-90
2021/08/30 03:11:27;;;;;;;6.67;5.10;;;15.60;99.90;;;;;;4995703;28;20196;-89
2021/08/30 03:13:55;;;;;;;6.70;6.10;;;15.70;99.90;;;;;;4994409;28;20218;-89
2021/08/30 03:16:24;;;;;;;6.57;5.97;;;15.50;99.90;;;;;;5015747;28;20807;-90
2021/08/30 03:18:51;;;;;;;6.43;5.67;;;15.50;99.90;;;;;;4998471;28;20228;-89
2021/08/30 03:21:17;;;;;;;6.07;5.40;;;15.40;99.90;;;;;;4998288;28;20190;-90
2021/08/30 03:23:44;;;;;;;6.50;6.00;;;15.40;99.90;;;;;;4981492;28;20232;-90
2021/08/30 03:26:09;;;;;;;6.80;6.10;;;15.50;99.90;;;;;;5000607;28;20221;-89
2021/08/30 03:28:36;;;;;;;5.77;5.27;;;15.40;99.90;;;;;;4997329;28;20208;-90
2021/08/30 03:31:03;;;;;;;6.80;6.20;;;15.40;99.90;;;;;;4997444;28;20191;-89
2021/08/30 03:33:30;;;;;;;7.30;5.70;;;15.50;99.90;;;;;;5000673;28;20222;-90
2021/08/30 03:35:57;;;;;;;6.97;6.20;;;15.50;99.90;;;;;;5004083;28;20195;-89
2021/08/30 03:38:23;;;;;;;5.73;5.27;;;15.60;99.90;;;;;;5018501;28;20388;-89
2021/08/30 03:40:50;;;;;;;6.47;5.97;;;15.60;99.90;;;;;;5019206;28;20611;-89
2021/08/30 03:43:18;;;;;;;7.87;6.20;;;15.60;99.90;;;;;;5001237;28;20275;-89
2021/08/30 03:45:46;;;;;;;5.87;5.47;;;15.60;99.90;;;;;;4997533;28;20191;-90
2021/08/30 03:48:11;;;;;;;6.20;5.70;;;15.40;99.90;;;;;;4998088;28;20196;-90
2021/08/30 03:50:38;;;;;;;9.60;6.17;;;15.50;99.90;;;;;;4991328;28;20227;-89
2021/08/30 03:53:05;;;;;;;5.83;5.33;;;15.60;99.90;;;;;;5003460;28;20201;-89
2021/08/30 03:55:31;;;;;;;7.10;6.17;;;15.50;99.90;;;;;;4993597;28;20197;-90
2021/08/30 03:57:59;;;;;;;7.00;6.30;;;15.40;99.90;;;;;;4988920;28;20204;-90
2021/08/30 04:00:26;;;;;;;8.27;5.97;;;15.40;99.90;;;;;;5000212;28;20214;-90
2021/08/30 04:02:54;;;;;;;6.97;6.27;;;15.30;99.90;;;;;;5013150;28;20192;-89
2021/08/30 04:05:23;;;;;;;6.60;6.00;;;15.20;99.90;;;;;;4999231;28;20276;-89
2021/08/30 04:07:51;;;;;;;6.23;5.63;;;15.30;99.90;;;;;;4990789;28;20200;-89
2021/08/30 04:10:18;;;;;;;7.17;6.57;;;15.40;99.90;;;;;;5000749;28;20191;-90
2021/08/30 04:12:45;;;;;;;8.00;5.90;;;15.50;99.90;;;;;;4997306;28;20282;-90
2021/08/30 04:15:10;;;;;;;6.43;5.83;;;15.30;99.90;;;;;;4998599;28;20325;-90
2021/08/30 04:17:36;;;;;;;6.97;6.27;;;15.40;99.90;;;;;;4997398;28;20193;-90
2021/08/30 04:20:03;;;;;;;6.43;5.83;;;15.40;99.90;;;;;;4997160;28;20200;-89
2021/08/30 04:22:28;;;;;;;7.00;6.33;;;15.50;99.90;;;;;;4997114;28;20194;-90
2021/08/30 04:24:54;;;;;;;7.40;6.20;;;15.40;99.90;;;;;;5016667;28;20219;-90
2021/08/30 04:27:20;;;;;;;6.20;5.60;;;15.50;99.90;;;;;;4998994;28;20259;-90
2021/08/30 04:29:46;;;;;;;7.00;5.73;;;15.60;99.90;;;;;;4998920;28;20206;-90
2021/08/30 04:32:12;;;;;;;7.83;6.20;;;15.60;99.90;;;;;;4998170;28;20238;-89
2021/08/30 04:34:38;;;;;;;5.60;5.10;;;15.60;99.90;;;;;;4987630;28;20234;-89
2021/08/30 04:37:04;;;;;;;7.23;6.20;;;15.50;99.90;;;;;;4989071;28;20221;-89
2021/08/30 04:39:30;;;;;;;6.93;6.30;;;15.50;99.90;;;;;;4984299;28;20190;-89
2021/08/30 04:41:56;;;;;;;7.00;6.30;;;15.40;99.90;;;;;;4995887;28;20200;-88
2021/08/30 04:44:21;;;;;;;7.10;6.40;;;15.40;99.90;;;;;;5000049;28;20214;-90
2021/08/30 04:46:47;;;;;;;6.23;5.73;;;15.50;99.90;;;;;;4999107;28;20280;-89
2021/08/30 04:49:13;;;;;;;6.93;6.27;;;15.60;99.90;;;;;;4984225;28;20208;-88
2021/08/30 04:51:38;;;;;;;6.93;6.33;;;15.40;99.90;;;;;;4992220;28;20630;-88
2021/08/30 04:54:05;;;;;;;7.30;6.70;;;15.30;99.90;;;;;;4998771;28;20228;-88
2021/08/30 04:56:31;;;;;;;6.67;6.10;;;15.40;99.90;;;;;;4982454;28;20187;-88
2021/08/30 04:58:57;;;;;;;7.43;6.73;;;15.40;99.90;;;;;;4996616;28;20197;-88
2021/08/30 05:01:24;;;;;;;6.30;5.80;;;15.40;99.90;;;;;;4996992;28;20755;-88
2021/08/30 05:03:50;;;;;;;6.30;5.80;;;15.40;99.90;;;;;;4983810;28;20375;-88
2021/08/30 05:06:16;;;;;;;6.27;5.67;;;15.50;99.90;;;;;;4990237;28;20195;-88
2021/08/30 05:08:42;;;;;;;9.63;6.70;;;15.50;99.90;;;;;;4985584;28;20319;-87
2021/08/30 05:11:08;;;;;;;7.33;6.03;;;15.50;99.90;;;;;;4985355;28;20190;-88
2021/08/30 05:13:34;;;;;;;6.77;6.13;;;15.50;99.90;;;;;;4997917;28;20220;-87
2021/08/30 05:15:59;;;;;;;7.10;6.20;;;15.40;99.90;;;;;;4997132;28;20187;-87
2021/08/30 05:18:25;;;;;;;7.50;6.80;;;15.40;99.90;;;;;;5000174;28;20220;-88
2021/08/30 05:20:52;;;;;;;7.07;6.37;;;15.50;99.90;;;;;;4999509;28;20229;-89
2021/08/30 05:23:18;;;;;;;7.10;6.50;;;15.40;99.90;;;;;;4995580;28;20186;-88
2021/08/30 05:25:45;;;;;;;7.07;6.47;;;15.50;99.90;;;;;;5016065;28;20263;-88
2021/08/30 05:28:11;;;;;;;7.03;6.43;;;15.60;99.90;;;;;;4993111;28;20171;-88
2021/08/30 05:30:37;;;;;;;6.73;6.13;;;15.60;99.90;;;;;;5001514;28;20194;-88
2021/08/30 05:33:04;;;;;;;6.80;6.20;;;15.70;99.90;;;;;;5008550;28;20279;-87
2021/08/30 05:35:30;;;;;;;8.17;7.00;;;15.70;99.90;;;;;;4996135;28;20242;-88
2021/08/30 05:37:56;;;;;;;6.83;6.30;;;15.70;99.90;;;;;;4996030;28;20253;-88
2021/08/30 05:40:22;;;;;;;7.03;6.10;;;15.80;99.90;;;;;;4996461;28;20196;-88
2021/08/30 05:42:47;;;;;;;6.20;5.70;;;15.70;99.90;;;;;;4981630;28;20194;-88
2021/08/30 05:45:13;;;;;;;6.53;5.90;;;15.80;99.90;;;;;;4996914;28;20225;-88
2021/08/30 05:47:41;;;;;;;6.40;5.90;;;15.70;99.90;;;;;;4997407;28;20202;-87
2021/08/30 05:50:08;;;;;;;6.50;5.90;;;15.80;99.90;;;;;;4998659;28;20224;-88
2021/08/30 05:52:34;;;;;;;7.67;6.13;;;15.70;99.90;;;;;;4995426;28;20198;-88
2021/08/30 05:54:59;;;;;;;7.03;6.53;;;15.70;99.90;;;;;;4998913;28;20228;-87
2021/08/30 05:57:25;;;;;;;6.53;5.97;;;15.80;99.90;;;;;;4999852;28;20194;-87
2021/08/30 05:59:51;;;;;;;6.70;6.10;;;15.80;99.90;;;;;;4999831;28;20191;-87
2021/08/30 06:02:16;;;;;;;6.33;5.83;;;15.70;99.90;;;;;;4999955;28;20210;-90
2021/08/30 06:04:42;;;;;;;6.77;5.83;;;15.80;99.90;;;;;;4975452;28;20308;-88
2021/08/30 06:07:08;;;;;;;7.03;6.50;;;15.90;99.90;;;;;;4983045;28;20206;-89
2021/08/30 06:09:34;;;;;;;6.53;6.03;;;15.80;99.90;;;;;;4988233;28;20193;-87
2021/08/30 06:11:59;;;;;;;6.57;6.07;;;15.70;99.90;;;;;;4992948;28;20201;-88
2021/08/30 06:14:25;;;;;;;7.00;6.30;;;15.70;99.90;;;;;;4992761;28;20651;-87
2021/08/30 06:16:51;;;;;;;6.97;6.37;;;15.70;99.90;;;;;;4996676;28;20187;-88
2021/08/30 06:19:16;;;;;;;6.33;5.13;;;15.60;99.90;;;;;;4989024;28;20208;-89
2021/08/30 06:21:42;;;;;;;6.27;5.80;;;15.70;99.90;;;;;;5003952;28;20224;-88
2021/08/30 06:24:08;;;;;;;9.17;6.30;;;15.70;99.90;;;;;;4980808;28;20718;-88
2021/08/30 06:26:36;;;;;;;6.70;6.03;;;15.80;99.90;;;;;;4983525;28;20206;-88
2021/08/30 06:29:03;;;;;;;6.73;6.03;;;15.90;99.90;;;;;;4986162;28;20249;-88
2021/08/30 06:31:29;;;;;;;7.03;6.27;;;15.80;99.90;;;;;;4980521;28;20194;-88
2021/08/30 06:33:56;;;;;;;6.23;5.60;;;16.00;99.90;;;;;;4982949;28;20227;-88
2021/08/30 06:36:22;;;;;;;6.27;5.67;;;16.00;99.60;;;;;;4984352;28;20197;-88
2021/08/30 06:38:47;;;;;;;6.33;5.83;;;16.00;99.90;;;;;;4985586;28;20182;-89
2021/08/30 06:41:13;;;;;;;6.40;5.90;;;16.00;99.90;;;;;;4988360;28;20187;-88
2021/08/30 06:43:39;;;;;;;7.57;6.30;;;16.00;99.90;;;;;;5006582;28;20205;-89
2021/08/30 06:46:05;;;;;;;6.53;6.03;;;15.90;99.90;;;;;;4997728;28;20186;-88
2021/08/30 06:48:30;;;;;;;6.90;6.20;;;15.90;99.90;;;;;;4984787;28;20210;-88
2021/08/30 06:50:57;;;;;;;6.43;5.80;;;16.00;99.90;;;;;;4992413;28;20198;-88
2021/08/30 06:53:22;;;;;;;8.90;6.33;;;16.10;99.90;;;;;;4999830;28;20684;-88
2021/08/30 06:55:48;;;;;;;6.23;5.63;;;16.00;99.90;;;;;;4996563;28;20193;-87
2021/08/30 06:58:14;;;;;;;8.33;6.43;;;16.10;99.90;;;;;;4990773;28;20194;-88
2021/08/30 07:00:39;;;;;;;7.67;7.07;;;16.00;99.90;;;;;;4992375;28;20865;-89
2021/08/30 07:03:05;;;;;;;7.00;6.20;;;15.80;99.90;;;;;;5001365;28;20417;-88
2021/08/30 07:05:31;;;;;;;7.47;6.77;;;15.90;99.90;;;;;;4994952;28;20190;-88
2021/08/30 07:07:56;;;;;;;6.50;5.90;;;16.00;99.90;;;;;;4990073;28;20198;-88
2021/08/30 07:10:22;;;;;;;6.57;5.97;;;16.10;99.90;;;;;;4988979;28;20198;-87
2021/08/30 07:12:48;;;;;;;8.33;6.10;;;16.10;99.90;;;;;;4983060;28;20228;-87
2021/08/30 07:15:14;;;;;;;6.57;5.90;;;16.20;99.90;;;;;;4997469;28;20630;-89
2021/08/30 07:17:39;;;;;;;6.57;5.97;;;16.00;99.90;;;;;;4997702;28;20190;-87
2021/08/30 07:20:06;;;;;;;6.43;5.93;;;16.00;99.90;;;;;;4996372;28;20269;-87
2021/08/30 07:22:32;;;;;;;6.90;6.10;;;16.10;99.90;;;;;;4997351;28;20425;-87
2021/08/30 07:24:57;;;;;;;6.70;6.10;;;16.30;99.90;;;;;;5004153;28;20227;-88
2021/08/30 07:27:23;;;;;;;7.37;6.60;;;16.30;99.90;;;;;;5003052;28;20198;-87
2021/08/30 07:29:50;;;;;;;6.43;5.83;;;16.20;99.90;;;;;;5004940;28;20277;-87
2021/08/30 07:32:16;;;;;;;7.73;6.73;;;16.20;99.90;;;;;;5001391;28;20210;-90
2021/08/30 07:34:42;;;;;;;6.73;6.23;;;16.20;99.90;;;;;;5009279;28;20225;-88
2021/08/30 07:37:08;;;;;;;6.77;6.17;;;16.10;99.90;;;;;;5007357;28;20716;-88
2021/08/30 07:39:34;;;;;;;10.40;6.90;;;16.10;99.90;;;;;;5005299;28;20284;-88
2021/08/30 07:42:03;;;;;;;6.93;6.33;;;16.10;99.90;;;;;;5004595;28;20224;-87
2021/08/30 07:44:32;;;;;;;7.10;6.40;;;16.10;99.90;;;;;;4998933;28;20322;-89
2021/08/30 07:46:58;;;;;;;6.67;6.17;;;16.10;99.90;;;;;;4993078;28;20202;-88
2021/08/30 07:49:23;;;;;;;7.77;7.07;;;16.10;99.90;;;;;;4997313;28;20274;-88
2021/08/30 07:51:49;;;;;;;7.23;6.63;;;16.20;99.90;;;;;;4986542;28;20187;-88
2021/08/30 07:54:15;;;;;;;6.70;6.10;;;16.30;99.90;;;;;;4998689;28;20217;-87
2021/08/30 07:56:41;;;;;;;7.67;6.97;;;16.30;99.90;;;;;;5000419;28;20254;-88
2021/08/30 07:59:09;;;;;;;7.07;6.47;;;16.30;99.90;;;;;;5002595;28;20257;-88
2021/08/30 08:01:35;;;;;;;7.40;6.70;;;16.30;99.90;;;;;;4999527;28;20180;-89
2021/08/30 08:04:01;;;;;;;8.20;7.40;;;16.30;99.90;;;;;;5001490;28;20219;-89
2021/08/30 08:06:27;;;;;;;8.17;7.47;;;16.30;99.90;;;;;;4996998;28;20199;-89
2021/08/30 08:08:53;;;;;;;9.18;8.18;;;16.50;99.90;;;;;;5001648;28;20208;-88
2021/08/30 08:11:19;;;;;;;9.03;8.13;;;16.50;99.90;;;;;;4994203;28;20195;-88
2021/08/30 08:13:44;;;;;;;8.20;7.50;;;16.50;99.90;;;;;;4998818;28;20215;-89
2021/08/30 08:16:13;;;;;;;8.13;7.50;;;16.60;99.90;;;;;;5007466;28;20232;-91
2021/08/30 08:18:39;;;;;;;9.02;8.23;;;16.50;99.90;;;;;;5004705;28;20223;-87
2021/08/30 08:21:07;;;;;;;8.23;7.53;;;16.50;99.90;;;;;;5000561;28;20202;-87
2021/08/30 08:23:33;;;;;;;8.40;7.43;;;16.50;99.90;;;;;;5002373;28;20585;-88
2021/08/30 08:25:59;;;;;;;9.50;7.57;;;16.40;99.90;;;;;;4993516;28;20231;-88
2021/08/30 08:28:25;;;;;;;10.13;7.13;;;16.50;99.90;;;;;;4995063;28;20199;-88
2021/08/30 08:30:51;;;;;;;10.65;8.05;;;16.60;99.90;;;;;;4989447;28;20196;-89
2021/08/30 08:33:17;;;;;;;8.07;7.28;;;16.70;99.90;;;;;;4993435;28;20228;-88
2021/08/30 08:35:43;;;;;;;7.68;7.07;;;16.60;99.90;;;;;;4992656;28;20278;-88
2021/08/30 08:38:11;;;;;;;7.63;6.93;;;16.60;99.90;;;;;;4994255;28;20218;-89
2021/08/30 08:40:38;;;;;;;8.10;7.20;;;16.50;99.90;;;;;;4989830;28;20242;-89
2021/08/30 08:43:14;;;;;;;8.80;8.00;;;16.50;99.90;;;;;;4992055;28;20196;-89
2021/08/30 08:45:42;;;;;;;8.33;6.83;;;16.50;99.90;;;;;;5008740;28;20240;-88
2021/08/30 08:48:09;;;;;;;7.77;6.97;;;16.60;99.90;;;;;;4990683;28;20202;-88
2021/08/30 08:50:35;;;;;;;7.55;6.95;;;16.70;99.90;;;;;;4992599;28;20204;-91
2021/08/30 08:53:04;;;;;;;7.70;7.00;;;16.90;99.90;;;;;;4991865;28;20225;-89
2021/08/30 08:55:34;;;;;;;7.80;7.20;;;16.70;99.90;;;;;;4991805;28;20249;-88
2021/08/30 08:58:08;;;;;;;9.90;7.33;;;16.70;99.90;;;;;;4993413;28;20198;-89
2021/08/30 09:00:35;;;;;;;7.33;6.73;;;16.80;99.90;;;;;;4992577;28;20258;-89
2021/08/30 09:03:01;;;;;;;8.68;7.55;;;17.00;99.90;;;;;;4992641;28;20188;-89
2021/08/30 09:05:27;;;;;;;7.05;6.35;;;17.10;99.90;;;;;;4993418;28;20252;-90
2021/08/30 09:07:57;;;;;;;8.90;7.00;;;17.30;98.50;;;;;;4991954;28;20200;-88
2021/08/30 09:10:25;;;;;;;7.97;7.28;;;17.50;98.10;;;;;;4994470;28;20296;-88
2021/08/30 09:13:03;;;;;;;7.88;6.90;;;17.40;98.20;;;;;;4990634;28;20734;-89
2021/08/30 09:15:28;;;;;;;8.13;7.32;;;17.30;98.80;;;;;;4993778;28;20250;-88
2021/08/30 09:17:56;;;;;;;8.98;7.65;;;17.20;99.90;;;;;;4991132;28;20209;-88
2021/08/30 09:20:25;;;;;;;8.10;7.15;;;17.10;99.90;;;;;;4991387;28;20285;-88
2021/08/30 09:22:51;;;;;;;7.95;7.15;;;17.10;99.90;;;;;;4998652;28;20200;-88
2021/08/30 09:25:18;;;;;;;7.88;7.20;;;17.10;99.90;;;;;;4995260;28;20217;-89
2021/08/30 09:27:51;;;;;;;7.72;7.10;;;17.20;99.90;;;;;;4995981;28;20597;-89
2021/08/30 09:30:24;;;;;;;10.48;7.50;;;17.20;99.90;;;;;;4991810;28;20197;-88
2021/08/30 09:32:50;;;;;;;9.00;8.20;;;17.20;99.90;;;;;;4991716;28;20199;-90
2021/08/30 09:35:17;;;;;;;9.23;7.93;;;17.00;99.90;;;;;;4993237;28;20224;-89
2021/08/30 09:37:45;;;;;;;8.18;7.53;;;17.00;99.90;;;;;;4989045;28;20667;-88
2021/08/30 09:40:16;;;;;;;9.00;8.20;;;17.10;99.90;;;;;;4988668;28;20647;-88
2021/08/30 09:42:47;;;;;;;8.85;7.95;;;17.40;99.90;;;;;;4992995;28;20205;-86
2021/08/30 09:45:15;;;;;;;8.30;7.50;;;17.50;99.90;;;;;;4986956;28;20216;-87
2021/08/30 09:47:57;;;;;;;8.43;7.72;;;17.30;99.90;;;;;;4992912;28;20666;-89
2021/08/30 09:50:41;;;;;;;8.02;7.22;;;17.30;99.90;;;;;;4993980;28;20262;-88
2021/08/30 09:53:07;;;;;;;8.50;7.80;;;17.50;99.90;;;;;;4992127;28;20185;-88
2021/08/30 09:55:35;;;;;;;8.73;7.90;;;17.60;99.80;;;;;;4991843;28;20889;-88
2021/08/30 09:58:02;;;;;;;8.80;8.05;;;17.60;99.50;;;;;;4993078;28;20179;-89
2021/08/30 10:00:29;;;;;;;8.70;8.00;;;17.60;99.00;;;;;;4991522;28;20194;-89
2021/08/30 10:02:58;;;;;;;9.70;8.70;;;17.60;99.10;;;;;;4976172;28;20217;-88
2021/08/30 10:05:26;;;;;;;8.95;8.05;;;17.80;99.10;;;;;;4994441;28;20265;-88
2021/08/30 10:07:55;;;;;;;9.93;8.93;;;17.80;98.10;;;;;;4991268;28;20281;-87
2021/08/30 10:10:23;;;;;;;9.57;8.68;;;17.60;98.80;;;;;;4990398;28;20254;-88
2021/08/30 10:12:50;;;;;;;9.10;8.30;;;17.70;99.90;;;;;;4991969;28;20262;-87
2021/08/30 10:15:19;;;;;;;8.55;7.85;;;17.90;98.70;;;;;;4988571;28;20235;-88
2021/08/30 10:17:48;;;;;;;12.70;9.38;;;17.80;98.50;;;;;;4991443;28;20205;-88
2021/08/30 10:20:19;;;;;;;9.80;8.95;;;17.70;97.80;;;;;;4993006;28;20276;-88
2021/08/30 10:22:59;;;;;;;9.65;8.75;;;17.70;98.20;;;;;;4990287;28;20201;-88
2021/08/30 10:25:25;;;;;;;9.45;8.55;;;18.00;98.10;;;;;;4993380;28;20673;-88
2021/08/30 10:27:55;;;;;;;10.90;9.85;;;18.20;97.60;;;;;;5005363;28;20201;-87
2021/08/30 10:30:23;;;;;;;10.43;9.40;;;18.50;95.60;;;;;;4991433;28;20190;-88
2021/08/30 10:32:56;;;;;;;10.60;9.60;;;18.60;92.80;;;;;;4990576;28;20204;-88
2021/08/30 10:35:25;;;;;;;10.77;9.77;;;18.80;90.50;;;;;;4993712;28;20228;-87
2021/08/30 10:38:00;;;;;;;11.13;10.13;;;18.90;88.30;;;;;;4991297;28;20217;-88
2021/08/30 10:40:30;;;;;;;11.75;10.60;;;19.00;87.40;;;;;;4989877;28;20196;-88
2021/08/30 10:43:07;;;;;;;10.98;10.07;;;19.00;85.00;;;;;;4989937;28;20231;-89
2021/08/30 10:45:41;;;;;;;11.00;10.07;;;19.10;86.50;;;;;;4991168;28;20198;-88
2021/08/30 10:48:17;;;;;;;11.65;10.43;;;19.10;85.10;;;;;;4974131;28;20201;-89
2021/08/30 10:50:47;;;;;;;11.27;10.25;;;19.20;86.10;;;;;;4990599;28;20198;-88
2021/08/30 10:53:17;;;;;;;12.35;10.60;;;19.30;86.10;;;;;;4990471;28;20217;-88
2021/08/30 10:55:47;;;;;;;11.43;10.43;;;19.30;83.90;;;;;;4987013;28;20369;-88
2021/08/30 10:58:20;;;;;;;11.50;10.50;;;19.30;84.60;;;;;;4989574;28;20273;-87
2021/08/30 11:00:49;;;;;;;11.27;10.32;;;19.40;86.70;;;;;;4991489;28;20723;-88
2021/08/30 11:03:29;;;;;;;11.40;10.30;;;19.30;84.30;;;;;;5005651;28;20282;-88
2021/08/30 11:06:10;;;;;;;11.32;10.32;;;19.30;82.80;;;;;;5016296;28;20192;-88
2021/08/30 11:08:39;;;;;;;12.05;10.88;;;19.10;84.90;;;;;;4994699;28;20183;-87
2021/08/30 11:11:12;;;;;;;11.00;10.07;;;19.10;82.70;;;;;;4989714;28;20202;-88
2021/08/30 11:13:39;;;;;;;12.43;11.23;;;19.10;82.70;;;;;;4991780;28;22070;-88
2021/08/30 11:16:16;;;;;;;11.85;10.65;;;19.10;83.90;;;;;;5008057;28;20196;-92
2021/08/30 11:18:57;;;;;;;10.98;9.93;;;19.10;83.60;;;;;;4998749;28;20198;-88
2021/08/30 11:21:34;;;;;;;12.20;10.82;;;19.20;81.80;;;;;;4990577;28;20198;-88
2021/08/30 11:24:00;;;;;;;10.48;9.68;;;19.20;81.60;;;;;;4993078;28;20214;-89
2021/08/30 11:26:26;;;;;;;11.02;9.93;;;19.20;84.10;;;;;;5003995;28;20257;-90
2021/08/30 11:29:00;;;;;;;11.25;10.35;;;19.30;82.50;;;;;;5004082;28;20195;-90
2021/08/30 11:31:28;;;;;;;11.55;10.50;;;19.40;84.00;;;;;;4996692;28;20194;-88
2021/08/30 11:33:54;;;;;;;11.20;10.20;;;19.40;82.70;;;;;;4986917;28;20788;-89
2021/08/30 11:36:20;;;;;;;12.63;10.48;;;19.40;81.50;;;;;;5008352;28;20262;-88
2021/08/30 11:38:57;;;;;;;10.98;9.98;;;19.50;81.30;;;;;;4988977;28;20206;-87
2021/08/30 11:41:24;;;;;;;10.43;9.27;;;19.40;79.50;;;;;;5008055;28;20183;-89
2021/08/30 11:44:03;;;;;;;10.60;9.70;;;19.40;79.60;;;;;;4993068;28;20803;-88
2021/08/30 11:46:28;;;;;;;9.73;8.95;;;19.40;79.50;;;;;;4993415;28;20259;-88
2021/08/30 11:48:57;;;;;;;10.73;9.75;;;19.50;79.60;;;;;;4989221;28;20197;-88
2021/08/30 11:51:25;;;;;;;10.70;9.70;;;19.60;79.30;;;;;;4993634;28;20226;-90
2021/08/30 11:53:51;;;;;;;10.77;9.70;;;19.70;78.80;;;;;;4992365;28;20785;-88
2021/08/30 11:56:17;;;;;;;11.32;10.30;;;19.80;76.80;;;;;;4992134;28;20186;-88
2021/08/30 11:58:42;;;;;;;10.00;9.15;;;19.90;78.70;;;;;;4993704;28;20248;-88
2021/08/30 12:01:08;;;;;;;9.80;9.00;;;20.10;76.70;;;;;;4993991;28;20265;-88
2021/08/30 12:03:42;;;;;;;10.02;9.02;;;20.30;77.60;;;;;;4991684;28;20214;-89
2021/08/30 12:06:19;;;;;;;10.63;9.63;;;20.30;74.60;;;;;;5010172;28;20217;-88
2021/08/30 12:08:55;;;;;;;10.10;9.30;;;20.50;74.80;;;;;;5008852;28;20188;-88
2021/08/30 12:11:21;;;;;;;10.98;9.88;;;20.50;75.10;;;;;;4991403;28;20184;-88
2021/08/30 12:16:26;;;;;;;10.52;9.57;;;20.80;74.60;;;;;;4993820;28;20198;-88
2021/08/30 12:18:53;;;;;;;10.32;9.43;;;20.80;74.30;;;;;;4993327;28;20188;-87
2021/08/30 12:21:34;;;;;;;9.90;9.00;;;20.60;74.60;;;;;;4992641;28;20186;-88
2021/08/30 12:23:59;;;;;;;9.88;9.00;;;20.60;73.70;;;;;;4993250;28;20229;-91
2021/08/30 12:26:26;;;;;;;10.60;9.80;;;20.60;75.60;;;;;;4992548;28;20205;-88
2021/08/30 12:28:56;;;;;;;10.07;9.27;;;20.70;76.20;;;;;;4992000;28;20197;-89
2021/08/30 12:31:31;;;;;;;10.52;9.63;;;20.70;78.40;;;;;;4991764;28;20220;-89
2021/08/30 12:34:14;;;;;;;9.88;9.10;;;20.80;75.00;;;;;;5010971;28;20225;-90
2021/08/30 12:36:41;;;;;;;10.38;9.38;;;20.90;74.20;;;;;;4992719;28;20247;-89
2021/08/30 12:39:07;;;;;;;10.75;9.75;;;20.80;73.80;;;;;;5007430;28;20207;-89
2021/08/30 12:41:33;;;;;;;9.90;9.05;;;20.70;73.10;;;;;;4991334;28;20213;-89
2021/08/30 12:44:00;;;;;;;10.00;9.10;;;20.60;74.20;;;;;;4990416;28;20214;-89
2021/08/30 12:46:26;;;;;;;9.45;8.65;;;20.60;75.80;;;;;;4990914;28;20196;-88
2021/08/30 12:48:52;;;;;;;10.02;9.23;;;20.50;77.70;;;;;;4988947;28;20240;-89
2021/08/30 12:51:19;;;;;;;11.65;10.55;;;20.20;79.40;;;;;;4992447;28;20187;-90
2021/08/30 12:53:45;;;;;;;11.35;10.18;;;20.00;81.90;;;;;;4989843;28;20222;-89